Relevés horaires Chievres (Belgique)


Relevés horaires à Chievres - Mercredi 06 Déc. 2017
Heure UTC1 Température [°C] Vent [km/h] Hum. [%] Pres.4 [hPa] Visi. [Km] Nébu. [octa] Préc.5 [mm] Cond.
2m. Res. Ros. Dir.2 Vit. Moy. Raf.3
23:00 5.5 3 1.9 SSO 11.1 -- 16.7 78 1025.9(-2.0/3h) 19 -- -- --
22:00 5.6 3.2 3.1 SSO 11.1 -- 16.7 84 1026.5(-2.0/3h) 15 -- -- --
21:00 6.0 4 2.7 SSO 9.3 -- 14.8 79 1027.2(-2.1/3h) 17 -- -- --
20:00 6.1 4.1 2.8 SSO 9.3 -- 14.8 79 1027.9(-1.7/3h) 16 -- -- --
19:00 6.5 4.6 3.4 SSO 9.3 -- 14.8 81 1028.5(-1.5/3h) 15 -- -- --
18:00 6.5 4.6 4.2 SSO 9.3 -- 14.8 85 1029.2(-1.0/3h) 13 -- trace/12h
--
17:00 6.6 5.2 4.8 SSO 7.4 -- 13.0 88 1029.7(-1.0/3h) 12 -- -- --
16:00 6.8 5 5.1 SSO 9.3 -- 13.0 89 1030(-1.2/3h) 11 -- -- --
15:00 7.1 5.3 5.1 SSO 9.3 -- 13.0 87 1030.2(-1.6/3h) 12 -- -- --
14:00 7.0 5.6 5.3 SSO 7.4 -- 11.1 89 1030.7(-1.9/3h) 11 -- -- --
13:00 7.0 5.6 5.6 SSO 7.4 -- 11.1 91 1031.4(-1.6/3h) 9 -- -- --
12:00 6.9 5.5 5.5 SSO 7.4 -- 11.1 91 1032(-0.9/3h) 9 -- trace/6h
NA
11:00 6.4 5.5 5.5 SO 5.6 -- 9.3 94 1032.7(-0.4/3h) 6 -- -- NA
10:00 6.4 5.5 5.2 SO 5.6 -- 9.3 92 1033(0.0/3h) 9 -- -- --
09:00 6.1 5.1 5.0 SSO 5.6 -- 11.1 93 1033(-0.2/3h) 8 -- -- --
08:00 6.0 4.5 4.9 SSO 7.4 -- 9.3 93 1033.2(-0.4/3h) 9 -- -- --
07:00 6.0 5 4.9 SSO 5.6 -- 11.1 93 1033(-0.8/3h) 7 -- -- --
06:00 6.0 4.5 5.0 SSO 7.4 -- 11.1 93 1033.2(-0.9/3h) 6 -- -- --
05:00 5.9 4.9 5.2 SO 5.6 -- 9.3 95 1033.5(-0.9/3h) 5 -- -- --
04:00 6.0 5 5.2 SO 5.6 -- 7.4 95 1033.9(-0.9/3h) 5 -- -- --
03:00 6.0 5 5.2 SO 5.6 -- 9.3 95 1034.2(-0.8/3h) 5 -- -- --
02:00 5.9 4.9 5.2 SSO 5.6 -- 7.4 95 1034.5(-0.6/3h) 5 -- -- --
01:00 5.9 4.9 5.2 SO 5.6 -- 9.3 95 1034.9(-0.5/3h) 5 -- -- --
00:00 5.9 4.9 5.3 SO 5.6 -- 9.3 96 1035(-0.5/3h) 5 -- -- --

1 Coordinated Universal Time. Actuellement il est 18:00 locale et 16:00 UTC.

2 Le vent souffle depuis la direction indiquée vers la direction oposée.

3 Les rafales max. sont disponible 40 min après l'heure du relevé.

4 Pour les stations d'altitude (plus de 600m) le géopotentiel du niveau le plus proche de la pression obligatoire est indiqué.

5 Les stations disposant d'un diffuseur peuvent indiquer "trace". Cela signifie que des précipitations ont touchés le sol mais que la quantité est inférieure à 0.1 mm.

Récapitulatif de la journée
Température [°C] Vent [km/h] Ensoleillement4 [h] Precipitations totale5 [mm] Pression [Hpa]
Min1 Max.2 Moy.3 Max. Min Max.
5.3 7.3 0 16.7 0 h 0 min 0 1025.9 1035.0

1 Température minimale relevée entre 18:00 UTC la veille et 18:00 UTC le jour donné.

2 Température maximale relevée entre 06:00 UTC le jour donné et 06:00 UTC le lendemain.

3 Vent moyen de la journée basé sur les relevés horaires.

4 Ensoleillement en heures relevé entre 06:00 UTC la veille et 06:00 UTC le jour donné.

5 Précipitations totales tombées entre 06:00 UTC la jour donné et 06:00 UTC le lendemain.

Graphiques horaires